Time;durP1;ratioP1;P1;durP2;ratioP2;P2;SDS_P1;SDS_P2;PMS_P1;PMS_P2;Temp;Humidity;BMP_temperature;BMP_pressure;BME280_temperature;BME280_humidity;BME280_pressure;Samples;Min_cycle;Max_cycle;Signal;HPM_P1;HPM_P2
2023/09/16 00:02:21;;;;;;;6.25;5.43;;;;;;;;;;6189507;23;20013;-91
2023/09/16 00:04:53;;;;;;;8.23;5.60;;;;;;;;;;6216525;23;20017;-91
2023/09/16 00:07:27;;;;;;;13.80;5.30;;;;;;;;;;6141618;23;20021;-90
2023/09/16 00:09:57;;;;;;;5.82;5.13;;;;;;;;;;6188510;23;20024;-89
2023/09/16 00:12:24;;;;;;;6.30;5.70;;;;;;;;;;6188334;23;20025;-89
2023/09/16 00:14:52;;;;;;;8.38;5.15;;;;;;;;;;6214397;23;20347;-89
2023/09/16 00:17:21;;;;;;;6.30;4.22;;;;;;;;;;6184849;23;20024;-90
2023/09/16 00:19:50;;;;;;;5.63;4.30;;;;;;;;;;6188410;23;20020;-91
2023/09/16 00:22:21;;;;;;;5.78;5.15;;;;;;;;;;6163879;23;20023;-90
2023/09/16 00:24:50;;;;;;;6.47;4.65;;;;;;;;;;6188606;23;20363;-91
2023/09/16 00:27:18;;;;;;;5.43;4.75;;;;;;;;;;6187908;23;20012;-91
2023/09/16 00:29:45;;;;;;;5.32;4.82;;;;;;;;;;6215133;23;20338;-91
2023/09/16 00:32:12;;;;;;;6.25;5.25;;;;;;;;;;6188870;23;20017;-91
2023/09/16 00:34:40;;;;;;;6.47;5.18;;;;;;;;;;6164032;23;20027;-89
2023/09/16 00:37:07;;;;;;;9.55;4.95;;;;;;;;;;6189119;23;20012;-90
2023/09/16 00:39:36;;;;;;;5.38;4.38;;;;;;;;;;6164293;23;20017;-90
2023/09/16 00:42:07;;;;;;;5.85;4.40;;;;;;;;;;6188809;23;20020;-90
2023/09/16 00:44:35;;;;;;;4.63;4.15;;;;;;;;;;6164056;23;20032;-89
2023/09/16 00:47:03;;;;;;;4.88;4.38;;;;;;;;;;6188619;23;20061;-91
2023/09/16 00:49:33;;;;;;;7.72;4.85;;;;;;;;;;6164362;23;20023;-91
2023/09/16 00:52:01;;;;;;;6.22;5.63;;;;;;;;;;6164303;23;20071;-91
2023/09/16 00:54:30;;;;;;;5.38;4.28;;;;;;;;;;6164749;23;20016;-90
2023/09/16 00:56:57;;;;;;;5.80;4.35;;;;;;;;;;6163242;23;20016;-90
2023/09/16 00:59:28;;;;;;;6.57;5.55;;;;;;;;;;6188530;23;20031;-91
2023/09/16 01:01:55;;;;;;;5.05;4.22;;;;;;;;;;6164355;23;20021;-90
2023/09/16 01:04:23;;;;;;;7.13;5.20;;;;;;;;;;6163287;23;20423;-90
2023/09/16 01:06:51;;;;;;;7.07;6.00;;;;;;;;;;6187692;23;20021;-91
2023/09/16 01:09:20;;;;;;;7.93;6.15;;;;;;;;;;6213584;23;20013;-89
2023/09/16 01:11:48;;;;;;;6.85;5.95;;;;;;;;;;6211929;23;20036;-90
2023/09/16 01:14:16;;;;;;;5.35;3.83;;;;;;;;;;6161671;23;20502;-89
2023/09/16 01:16:48;;;;;;;5.57;4.65;;;;;;;;;;6162466;23;20013;-91
2023/09/16 01:19:21;;;;;;;5.40;4.53;;;;;;;;;;6162845;23;20028;-90
2023/09/16 01:21:52;;;;;;;5.90;5.38;;;;;;;;;;6188656;23;20013;-90
2023/09/16 01:24:23;;;;;;;6.38;4.93;;;;;;;;;;6187554;23;20031;-89
2023/09/16 01:26:52;;;;;;;5.60;5.05;;;;;;;;;;6165435;23;20017;-90
2023/09/16 01:29:21;;;;;;;8.43;4.85;;;;;;;;;;6226193;23;20016;-89
2023/09/16 01:31:48;;;;;;;5.50;4.97;;;;;;;;;;6189032;23;20013;-89
2023/09/16 01:34:22;;;;;;;6.22;5.07;;;;;;;;;;6163780;23;20016;-89
2023/09/16 01:36:52;;;;;;;6.80;6.03;;;;;;;;;;6161173;23;20043;-89
2023/09/16 01:39:21;;;;;;;6.13;5.53;;;;;;;;;;6187838;23;20444;-89
2023/09/16 01:41:50;;;;;;;5.43;4.93;;;;;;;;;;6162098;23;20039;-89
2023/09/16 01:44:19;;;;;;;8.10;5.07;;;;;;;;;;6186335;23;20053;-89
2023/09/16 01:46:46;;;;;;;7.50;4.95;;;;;;;;;;6187151;23;20013;-91
2023/09/16 01:49:14;;;;;;;6.03;4.47;;;;;;;;;;6161620;23;20028;-89
2023/09/16 01:51:41;;;;;;;4.95;3.90;;;;;;;;;;6162100;23;20016;-91
2023/09/16 01:54:08;;;;;;;4.40;4.00;;;;;;;;;;6186792;23;20016;-91
2023/09/16 01:56:36;;;;;;;5.55;5.00;;;;;;;;;;6186885;23;20020;-90
2023/09/16 01:59:06;;;;;;;4.47;3.92;;;;;;;;;;6196891;23;20021;-89
2023/09/16 02:01:34;;;;;;;6.45;4.55;;;;;;;;;;6186091;23;20013;-90
2023/09/16 02:04:02;;;;;;;8.18;5.57;;;;;;;;;;6186335;23;20027;-90
2023/09/16 02:06:32;;;;;;;5.63;4.57;;;;;;;;;;6161640;23;20032;-90
2023/09/16 02:08:59;;;;;;;5.25;4.28;;;;;;;;;;6160843;23;20012;-90
2023/09/16 02:11:31;;;;;;;7.32;4.72;;;;;;;;;;6162215;23;20016;-90
2023/09/16 02:14:02;;;;;;;6.57;5.80;;;;;;;;;;6161630;23;20020;-89
2023/09/16 02:16:29;;;;;;;6.15;5.55;;;;;;;;;;6161090;23;20499;-91
2023/09/16 02:18:58;;;;;;;5.78;4.65;;;;;;;;;;6161783;23;20020;-90
2023/09/16 02:21:29;;;;;;;5.65;4.97;;;;;;;;;;6161900;23;20024;-90
2023/09/16 02:23:57;;;;;;;5.07;4.57;;;;;;;;;;6161656;23;20032;-89
2023/09/16 02:26:25;;;;;;;7.07;5.18;;;;;;;;;;6161358;23;20016;-89
2023/09/16 02:28:57;;;;;;;4.93;4.43;;;;;;;;;;6162311;23;20020;-90
2023/09/16 02:31:26;;;;;;;5.78;5.18;;;;;;;;;;6161625;23;20027;-90
2023/09/16 02:33:57;;;;;;;5.90;5.10;;;;;;;;;;6162284;23;20082;-89
2023/09/16 02:36:28;;;;;;;5.32;4.32;;;;;;;;;;6162747;23;20016;-90
2023/09/16 02:38:55;;;;;;;5.20;4.18;;;;;;;;;;6185218;23;20641;-90
2023/09/16 02:41:25;;;;;;;6.22;4.65;;;;;;;;;;6161830;23;20025;-89
2023/09/16 02:43:52;;;;;;;7.32;5.32;;;;;;;;;;6162141;23;20028;-91
2023/09/16 02:46:20;;;;;;;8.55;4.40;;;;;;;;;;6161256;23;20023;-89
2023/09/16 02:48:47;;;;;;;6.15;5.55;;;;;;;;;;6185449;23;20020;-90
2023/09/16 02:51:16;;;;;;;7.40;5.00;;;;;;;;;;6186784;23;20013;-90
2023/09/16 02:53:43;;;;;;;7.93;4.63;;;;;;;;;;6186959;23;20013;-89
2023/09/16 02:56:11;;;;;;;5.40;4.57;;;;;;;;;;6161282;23;20020;-91
2023/09/16 02:58:40;;;;;;;7.13;5.00;;;;;;;;;;6185683;23;20008;-89
2023/09/16 03:01:10;;;;;;;5.40;4.47;;;;;;;;;;6185992;23;20027;-89
2023/09/16 03:03:40;;;;;;;7.10;5.45;;;;;;;;;;6186341;23;20020;-89
2023/09/16 03:06:10;;;;;;;4.78;3.95;;;;;;;;;;6186847;23;20020;-89
2023/09/16 03:08:39;;;;;;;6.82;5.68;;;;;;;;;;6160748;23;20023;-89
2023/09/16 03:11:09;;;;;;;8.77;5.03;;;;;;;;;;6160943;23;20024;-90
2023/09/16 03:13:39;;;;;;;5.95;5.32;;;;;;;;;;6187892;23;20467;-89
2023/09/16 03:16:15;;;;;;;5.95;4.38;;;;;;;;;;6188271;23;20016;-89
2023/09/16 03:18:47;;;;;;;7.32;3.95;;;;;;;;;;6197595;23;20016;-89
2023/09/16 03:21:18;;;;;;;7.05;5.72;;;;;;;;;;6162909;23;20016;-89
2023/09/16 03:23:47;;;;;;;6.65;3.97;;;;;;;;;;6163583;23;20032;-89
2023/09/16 03:26:15;;;;;;;6.20;4.75;;;;;;;;;;6188728;23;20455;-91
2023/09/16 03:28:45;;;;;;;5.93;4.53;;;;;;;;;;6162640;23;20336;-89
2023/09/16 03:31:14;;;;;;;4.80;4.32;;;;;;;;;;6162466;23;20024;-89
2023/09/16 03:33:41;;;;;;;4.70;4.25;;;;;;;;;;6163518;23;20017;-90
2023/09/16 03:36:09;;;;;;;5.50;4.82;;;;;;;;;;6163112;23;20020;-90
2023/09/16 03:38:47;;;;;;;6.00;5.40;;;;;;;;;;6162284;23;20024;-89
2023/09/16 03:41:17;;;;;;;5.80;4.90;;;;;;;;;;6193197;23;20025;-89
2023/09/16 03:43:52;;;;;;;9.70;4.28;;;;;;;;;;6197905;23;20020;-89
2023/09/16 03:46:23;;;;;;;5.53;4.95;;;;;;;;;;6198387;23;20009;-90
2023/09/16 03:48:52;;;;;;;5.70;4.32;;;;;;;;;;6162513;23;20016;-90
2023/09/16 03:51:22;;;;;;;5.10;3.95;;;;;;;;;;6169447;23;20076;-89
2023/09/16 03:53:52;;;;;;;5.28;4.35;;;;;;;;;;6174018;23;20039;-89
2023/09/16 03:56:20;;;;;;;6.45;4.85;;;;;;;;;;6163636;23;20017;-90
2023/09/16 03:58:50;;;;;;;5.30;4.45;;;;;;;;;;6188322;23;20482;-90
2023/09/16 04:01:21;;;;;;;5.85;4.30;;;;;;;;;;6166967;23;20473;-89
2023/09/16 04:03:48;;;;;;;4.60;4.10;;;;;;;;;;6167923;23;20020;-91
2023/09/16 04:06:18;;;;;;;5.35;4.18;;;;;;;;;;6168027;23;20017;-89
2023/09/16 04:08:46;;;;;;;5.10;4.60;;;;;;;;;;6218587;23;20020;-90
2023/09/16 04:11:17;;;;;;;5.55;4.75;;;;;;;;;;6191155;23;20016;-89
2023/09/16 04:13:48;;;;;;;7.18;5.38;;;;;;;;;;6163453;23;20032;-89
2023/09/16 04:16:18;;;;;;;6.35;5.60;;;;;;;;;;6198126;23;20036;-88
2023/09/16 04:18:45;;;;;;;6.82;5.45;;;;;;;;;;6187194;23;20348;-90
2023/09/16 04:21:13;;;;;;;6.93;5.22;;;;;;;;;;6162725;23;20028;-90
2023/09/16 04:23:40;;;;;;;7.15;4.53;;;;;;;;;;6187433;23;20012;-89
2023/09/16 04:26:15;;;;;;;7.47;6.00;;;;;;;;;;6163223;23;20028;-89
2023/09/16 04:28:45;;;;;;;6.07;4.70;;;;;;;;;;6162111;23;20020;-90
2023/09/16 04:31:13;;;;;;;5.60;5.00;;;;;;;;;;6167892;23;20026;-90
2023/09/16 04:33:41;;;;;;;6.28;5.65;;;;;;;;;;6206472;23;20020;-90
2023/09/16 04:36:12;;;;;;;4.72;3.60;;;;;;;;;;6207581;23;20023;-90
2023/09/16 04:38:42;;;;;;;6.10;5.05;;;;;;;;;;6183913;23;20017;-90
2023/09/16 04:41:10;;;;;;;6.18;4.63;;;;;;;;;;6187324;23;20008;-90
2023/09/16 04:43:38;;;;;;;5.30;4.80;;;;;;;;;;6190500;23;20068;-89
2023/09/16 04:46:09;;;;;;;4.72;4.18;;;;;;;;;;6188197;23;20076;-89
2023/09/16 04:48:46;;;;;;;4.50;4.10;;;;;;;;;;6177848;23;20004;-90
2023/09/16 04:51:14;;;;;;;5.22;4.03;;;;;;;;;;6164892;23;20025;-89
2023/09/16 04:53:43;;;;;;;9.88;5.20;;;;;;;;;;6163946;23;20032;-89
2023/09/16 04:56:14;;;;;;;5.05;3.92;;;;;;;;;;6163245;23;20641;-90
2023/09/16 04:58:44;;;;;;;5.70;4.85;;;;;;;;;;6163084;23;20016;-90
2023/09/16 05:01:13;;;;;;;5.00;4.57;;;;;;;;;;6163831;23;20017;-90
2023/09/16 05:03:43;;;;;;;6.13;4.85;;;;;;;;;;6223877;23;20012;-90
2023/09/16 05:06:12;;;;;;;4.18;3.65;;;;;;;;;;6187927;23;20035;-90
2023/09/16 05:08:42;;;;;;;7.32;5.03;;;;;;;;;;6189103;23;20052;-90
2023/09/16 05:11:09;;;;;;;6.30;4.07;;;;;;;;;;6217392;23;20003;-89
2023/09/16 05:13:51;;;;;;;8.85;4.80;;;;;;;;;;6192059;23;20048;-92
2023/09/16 05:16:21;;;;;;;6.28;4.57;;;;;;;;;;6190803;23;20053;-90
2023/09/16 05:18:49;;;;;;;3.97;3.60;;;;;;;;;;6166058;23;20016;-91
2023/09/16 05:21:19;;;;;;;5.32;4.78;;;;;;;;;;6165102;23;20017;-91
2023/09/16 05:23:47;;;;;;;5.75;5.18;;;;;;;;;;6190337;23;20564;-91
2023/09/16 05:26:15;;;;;;;5.40;3.47;;;;;;;;;;6165704;23;20016;-92
2023/09/16 05:28:44;;;;;;;6.35;4.63;;;;;;;;;;6166625;23;20493;-91
2023/09/16 05:31:14;;;;;;;6.40;4.90;;;;;;;;;;6163703;23;20022;-91
2023/09/16 05:33:45;;;;;;;8.13;5.50;;;;;;;;;;6164176;23;20025;-90
2023/09/16 05:36:13;;;;;;;5.82;5.18;;;;;;;;;;6163518;23;20024;-91
2023/09/16 05:38:40;;;;;;;4.95;4.00;;;;;;;;;;6162594;23;20364;-91
2023/09/16 05:41:08;;;;;;;4.80;4.10;;;;;;;;;;6161945;23;20020;-90
2023/09/16 05:43:35;;;;;;;7.35;5.80;;;;;;;;;;6162024;23;20020;-91
2023/09/16 05:46:06;;;;;;;6.18;5.35;;;;;;;;;;6163972;23;20020;-90
2023/09/16 05:48:36;;;;;;;6.03;4.93;;;;;;;;;;6161589;23;20020;-91
2023/09/16 05:51:04;;;;;;;5.45;4.85;;;;;;;;;;6162151;23;20021;-91
2023/09/16 05:53:34;;;;;;;6.18;5.47;;;;;;;;;;6213048;23;20013;-91
2023/09/16 05:56:06;;;;;;;5.70;3.75;;;;;;;;;;6163210;23;20017;-91
2023/09/16 05:58:37;;;;;;;4.05;3.63;;;;;;;;;;6197807;23;20502;-91
2023/09/16 06:01:08;;;;;;;8.07;5.10;;;;;;;;;;6161550;23;20025;-90
2023/09/16 06:03:38;;;;;;;5.55;3.72;;;;;;;;;;6158103;23;20044;-90
2023/09/16 06:06:10;;;;;;;6.03;3.40;;;;;;;;;;6160175;23;20020;-91
2023/09/16 06:08:38;;;;;;;6.15;3.88;;;;;;;;;;6184847;23;20363;-91
2023/09/16 06:11:06;;;;;;;5.28;3.40;;;;;;;;;;6185620;23;20012;-90
2023/09/16 06:13:33;;;;;;;3.47;3.15;;;;;;;;;;6160192;23;20036;-90
2023/09/16 06:16:01;;;;;;;3.78;3.13;;;;;;;;;;6160482;23;20024;-90
2023/09/16 06:18:32;;;;;;;3.75;3.38;;;;;;;;;;6186142;23;20021;-90
2023/09/16 06:20:59;;;;;;;5.55;3.38;;;;;;;;;;6160525;23;20024;-90
2023/09/16 06:23:31;;;;;;;3.78;3.13;;;;;;;;;;6184859;23;20024;-90
2023/09/16 06:25:59;;;;;;;3.97;3.58;;;;;;;;;;6160068;23;20371;-90
2023/09/16 06:28:28;;;;;;;4.15;2.90;;;;;;;;;;6159669;23;20081;-90
2023/09/16 06:30:56;;;;;;;5.00;3.15;;;;;;;;;;6160771;23;20367;-90
2023/09/16 06:33:24;;;;;;;3.60;3.30;;;;;;;;;;6185285;23;20352;-90
2023/09/16 06:35:51;;;;;;;7.55;2.90;;;;;;;;;;6157793;23;20020;-90
2023/09/16 06:38:19;;;;;;;3.78;3.15;;;;;;;;;;6159690;23;20020;-91
2023/09/16 06:40:49;;;;;;;3.60;3.28;;;;;;;;;;6160246;23;20602;-90
2023/09/16 06:43:16;;;;;;;3.45;3.13;;;;;;;;;;6185338;23;20032;-90
2023/09/16 06:45:46;;;;;;;3.95;3.17;;;;;;;;;;6159075;23;20016;-91
2023/09/16 06:48:13;;;;;;;3.85;3.45;;;;;;;;;;6159867;23;20021;-90
2023/09/16 06:50:41;;;;;;;3.97;2.90;;;;;;;;;;6211578;23;20013;-90
2023/09/16 06:53:11;;;;;;;3.20;2.70;;;;;;;;;;6185702;23;20024;-90
2023/09/16 06:55:38;;;;;;;4.20;3.42;;;;;;;;;;6184937;23;20020;-91
2023/09/16 06:58:07;;;;;;;3.95;3.55;;;;;;;;;;6213451;23;20023;-91
2023/09/16 07:00:36;;;;;;;4.20;3.10;;;;;;;;;;6221654;23;20009;-91
2023/09/16 07:03:05;;;;;;;4.43;3.35;;;;;;;;;;6196094;23;20075;-90
2023/09/16 07:05:32;;;;;;;3.75;2.92;;;;;;;;;;6195149;23;20021;-90
2023/09/16 07:08:00;;;;;;;4.32;3.08;;;;;;;;;;6186400;23;20027;-90
2023/09/16 07:10:27;;;;;;;3.95;3.45;;;;;;;;;;6212497;23;20013;-90
2023/09/16 07:12:55;;;;;;;3.78;3.47;;;;;;;;;;6195788;23;20324;-91
2023/09/16 07:15:24;;;;;;;6.05;3.38;;;;;;;;;;6185687;23;20016;-91
2023/09/16 07:17:51;;;;;;;3.47;3.08;;;;;;;;;;6184457;23;20013;-91
2023/09/16 07:20:19;;;;;;;5.53;3.92;;;;;;;;;;6211496;23;20013;-91
2023/09/16 07:22:46;;;;;;;3.70;3.25;;;;;;;;;;6184794;23;20020;-91
2023/09/16 07:25:14;;;;;;;4.40;3.92;;;;;;;;;;6210403;23;20020;-91
2023/09/16 07:27:46;;;;;;;3.78;3.13;;;;;;;;;;6221316;23;20020;-91
2023/09/16 07:30:14;;;;;;;3.65;3.35;;;;;;;;;;6211336;23;20009;-91
2023/09/16 07:32:44;;;;;;;3.38;2.97;;;;;;;;;;6212390;23;20027;-91
2023/09/16 07:35:11;;;;;;;4.68;3.40;;;;;;;;;;6159872;23;20021;-91
2023/09/16 07:37:39;;;;;;;4.93;4.30;;;;;;;;;;6159554;23;20021;-91
2023/09/16 07:40:07;;;;;;;4.10;3.72;;;;;;;;;;6184752;23;20490;-91
2023/09/16 07:42:35;;;;;;;5.82;4.00;;;;;;;;;;6184061;23;20484;-92
2023/09/16 07:45:06;;;;;;;4.03;3.63;;;;;;;;;;6161335;23;20016;-93
2023/09/16 07:47:33;;;;;;;3.83;3.30;;;;;;;;;;6185213;23;20020;-91
2023/09/16 07:50:06;;;;;;;4.47;4.07;;;;;;;;;;6188236;23;20017;-91
2023/09/16 07:52:35;;;;;;;4.13;3.73;;;;;;;;;;6198649;23;20020;-92
2023/09/16 07:55:03;;;;;;;4.45;3.58;;;;;;;;;;6186168;23;20024;-92
2023/09/16 07:57:30;;;;;;;4.35;3.95;;;;;;;;;;6186616;23;20077;-93
2023/09/16 08:00:00;;;;;;;5.88;3.42;;;;;;;;;;6214569;23;20020;-91
2023/09/16 08:02:28;;;;;;;3.45;3.15;;;;;;;;;;6217865;23;20012;-91
2023/09/16 08:04:55;;;;;;;5.60;4.30;;;;;;;;;;6195297;23;20013;-92
2023/09/16 08:07:24;;;;;;;3.95;3.55;;;;;;;;;;6168647;23;20034;-92
2023/09/16 08:09:52;;;;;;;5.53;3.83;;;;;;;;;;6231049;23;20019;-91
2023/09/16 08:12:19;;;;;;;5.78;4.90;;;;;;;;;;6190714;23;20024;-93
2023/09/16 08:15:06;;;;;;;4.30;3.90;;;;;;;;;;6164397;23;20036;-91
2023/09/16 08:17:37;;;;;;;4.10;3.80;;;;;;;;;;6186478;23;20028;-92
2023/09/16 08:20:05;;;;;;;3.75;3.42;;;;;;;;;;6223488;23;20016;-93
2023/09/16 08:22:37;;;;;;;4.00;3.60;;;;;;;;;;6215143;23;20024;-92
2023/09/16 08:25:07;;;;;;;4.90;3.70;;;;;;;;;;6224134;23;20360;-92
2023/09/16 08:27:36;;;;;;;4.97;3.75;;;;;;;;;;6163679;23;20021;-93
2023/09/16 08:30:04;;;;;;;5.47;4.97;;;;;;;;;;6188186;23;20031;-92
2023/09/16 08:32:33;;;;;;;5.38;4.57;;;;;;;;;;6213570;23;20768;-92
2023/09/16 08:35:01;;;;;;;5.03;4.53;;;;;;;;;;6189273;23;20012;-91
2023/09/16 08:37:29;;;;;;;4.95;4.45;;;;;;;;;;6217609;23;20013;-93
2023/09/16 08:39:57;;;;;;;5.78;4.70;;;;;;;;;;6191137;23;20022;-93
2023/09/16 08:42:33;;;;;;;5.95;5.05;;;;;;;;;;6190281;23;20052;-90
2023/09/16 08:45:04;;;;;;;6.03;4.90;;;;;;;;;;6189939;23;20016;-93
2023/09/16 08:47:34;;;;;;;5.45;4.90;;;;;;;;;;6226482;23;20593;-92
2023/09/16 08:50:06;;;;;;;7.40;4.88;;;;;;;;;;6190532;23;20031;-92
2023/09/16 08:52:46;;;;;;;8.60;5.00;;;;;;;;;;6187797;23;20020;-93
2023/09/16 08:55:15;;;;;;;7.35;5.70;;;;;;;;;;6188436;23;20021;-92
2023/09/16 08:57:48;;;;;;;5.85;4.97;;;;;;;;;;6164960;23;20039;-92
2023/09/16 09:00:17;;;;;;;7.07;4.90;;;;;;;;;;6163581;23;20016;-91
2023/09/16 09:02:45;;;;;;;5.85;5.28;;;;;;;;;;6216052;23;20023;-92
2023/09/16 09:05:12;;;;;;;6.13;5.50;;;;;;;;;;6214241;23;20332;-92
2023/09/16 09:07:43;;;;;;;4.55;4.15;;;;;;;;;;6187879;23;20020;-92
2023/09/16 09:10:12;;;;;;;5.43;4.85;;;;;;;;;;6214399;23;20016;-93
2023/09/16 09:12:45;;;;;;;6.03;4.65;;;;;;;;;;6216388;23;20012;-92
2023/09/16 09:15:15;;;;;;;5.57;4.97;;;;;;;;;;6163483;23;20837;-92
2023/09/16 09:17:51;;;;;;;5.32;4.82;;;;;;;;;;6213798;23;20383;-92
2023/09/16 09:20:26;;;;;;;5.57;5.03;;;;;;;;;;6224236;23;20013;-92
2023/09/16 09:23:06;;;;;;;6.10;5.53;;;;;;;;;;6188059;23;20359;-92
2023/09/16 09:25:59;;;;;;;5.97;5.43;;;;;;;;;;6217014;23;20017;-94
2023/09/16 09:28:29;;;;;;;5.53;5.03;;;;;;;;;;6187671;23;20027;-93
2023/09/16 09:31:22;;;;;;;5.63;5.13;;;;;;;;;;6222517;23;20019;-92
2023/09/16 09:34:16;;;;;;;5.68;4.03;;;;;;;;;;6192924;23;20016;-92
2023/09/16 09:36:46;;;;;;;5.68;5.18;;;;;;;;;;6187821;23;20020;-92
2023/09/16 09:39:13;;;;;;;6.90;5.60;;;;;;;;;;6187822;23;20020;-93
2023/09/16 09:41:46;;;;;;;4.47;4.07;;;;;;;;;;6163080;23;20016;-92
2023/09/16 09:44:15;;;;;;;7.53;5.32;;;;;;;;;;6191514;23;20027;-93
2023/09/16 09:46:42;;;;;;;6.88;5.03;;;;;;;;;;6187704;23;20020;-93
2023/09/16 09:49:12;;;;;;;5.88;5.38;;;;;;;;;;6188599;23;20021;-92
2023/09/16 09:51:43;;;;;;;5.37;4.23;;;;;;;;;;6191985;23;20012;-92
2023/09/16 09:54:13;;;;;;;5.18;4.60;;;;;;;;;;6165013;23;20023;-92
2023/09/16 09:56:41;;;;;;;8.05;5.03;;;;;;;;;;6214073;23;20016;-93
2023/09/16 09:59:12;;;;;;;5.22;4.72;;;;;;;;;;6164022;23;20013;-91
2023/09/16 10:01:44;;;;;;;5.50;4.72;;;;;;;;;;6219676;23;20020;-92
2023/09/16 10:04:12;;;;;;;5.63;4.88;;;;;;;;;;6189682;23;20028;-91
2023/09/16 10:06:39;;;;;;;5.07;4.57;;;;;;;;;;6201147;23;20021;-94
2023/09/16 10:09:11;;;;;;;4.47;4.07;;;;;;;;;;6170154;23;20024;-94
2023/09/16 10:11:38;;;;;;;5.20;4.75;;;;;;;;;;6214331;23;20016;-92
2023/09/16 10:14:07;;;;;;;5.22;4.35;;;;;;;;;;6188262;23;20031;-91
2023/09/16 10:16:35;;;;;;;4.88;4.47;;;;;;;;;;6157712;23;20371;-90
2023/09/16 10:19:04;;;;;;;4.88;4.38;;;;;;;;;;6186831;23;20021;-92
2023/09/16 10:21:37;;;;;;;4.65;4.25;;;;;;;;;;6163755;23;20025;-91
2023/09/16 10:24:08;;;;;;;5.32;4.68;;;;;;;;;;6198618;23;20020;-91
2023/09/16 10:26:38;;;;;;;6.70;4.88;;;;;;;;;;6197827;23;20020;-92
2023/09/16 10:29:07;;;;;;;5.20;4.80;;;;;;;;;;6214108;23;20015;-90
2023/09/16 10:31:35;;;;;;;5.40;4.90;;;;;;;;;;6187410;23;20012;-92
2023/09/16 10:34:04;;;;;;;5.07;4.65;;;;;;;;;;6189330;23;20032;-92
2023/09/16 10:36:35;;;;;;;5.20;4.53;;;;;;;;;;6197548;23;20017;-91
2023/09/16 10:39:03;;;;;;;4.82;4.32;;;;;;;;;;6187832;23;20016;-92
2023/09/16 10:41:33;;;;;;;6.05;4.78;;;;;;;;;;6187519;23;20024;-91
2023/09/16 10:44:02;;;;;;;5.05;4.57;;;;;;;;;;6186846;23;20013;-92
2023/09/16 10:46:30;;;;;;;5.53;5.03;;;;;;;;;;6163367;23;20136;-93
2023/09/16 10:48:58;;;;;;;4.63;4.20;;;;;;;;;;6186500;23;20029;-92
2023/09/16 10:51:27;;;;;;;5.47;4.05;;;;;;;;;;6187521;23;20103;-92
2023/09/16 10:54:00;;;;;;;5.32;4.80;;;;;;;;;;6214297;23;20471;-91
2023/09/16 10:56:33;;;;;;;4.90;4.50;;;;;;;;;;6186237;23;20016;-92
2023/09/16 10:59:02;;;;;;;4.38;3.92;;;;;;;;;;6221481;23;20012;-93
2023/09/16 11:01:32;;;;;;;5.05;4.53;;;;;;;;;;6185438;23;20012;-91
2023/09/16 11:04:16;;;;;;;4.57;4.18;;;;;;;;;;6211845;23;20490;-93
2023/09/16 11:06:50;;;;;;;4.90;4.50;;;;;;;;;;6185097;23;20031;-91
2023/09/16 11:09:21;;;;;;;6.10;4.45;;;;;;;;;;6212021;23;20023;-92
2023/09/16 11:12:21;;;;;;;4.40;3.92;;;;;;;;;;6212841;23;20027;-91
2023/09/16 11:14:50;;;;;;;5.13;4.65;;;;;;;;;;6132471;23;20021;-91
2023/09/16 11:17:24;;;;;;;5.18;4.22;;;;;;;;;;6222212;23;20016;-91
2023/09/16 11:20:12;;;;;;;4.53;4.03;;;;;;;;;;6164045;23;20035;-92
2023/09/16 11:22:47;;;;;;;4.65;4.25;;;;;;;;;;6185901;23;20032;-91
2023/09/16 11:25:15;;;;;;;4.68;4.28;;;;;;;;;;6186623;23;20021;-91
2023/09/16 11:27:44;;;;;;;4.20;3.80;;;;;;;;;;6160784;23;20017;-91
2023/09/16 11:30:15;;;;;;;7.60;4.80;;;;;;;;;;6222013;23;20020;-91
2023/09/16 11:33:10;;;;;;;4.20;3.88;;;;;;;;;;6213048;23;20467;-92
2023/09/16 11:35:38;;;;;;;6.47;5.13;;;;;;;;;;6198035;23;20027;-91
2023/09/16 11:38:07;;;;;;;4.82;4.40;;;;;;;;;;6187555;23;20017;-91
2023/09/16 11:40:35;;;;;;;4.60;3.92;;;;;;;;;;6162894;23;20364;-93
2023/09/16 11:43:03;;;;;;;5.15;4.20;;;;;;;;;;6214514;23;20504;-90
2023/09/16 11:45:32;;;;;;;4.93;4.43;;;;;;;;;;6163427;23;20024;-91
2023/09/16 11:48:02;;;;;;;4.43;3.80;;;;;;;;;;6162831;23;20023;-91
2023/09/16 11:50:29;;;;;;;5.65;4.22;;;;;;;;;;6188359;23;20024;-91
2023/09/16 11:53:04;;;;;;;4.90;4.40;;;;;;;;;;6162921;23;20016;-90
2023/09/16 11:55:35;;;;;;;6.20;3.97;;;;;;;;;;6186277;23;20020;-90
2023/09/16 11:58:03;;;;;;;9.15;4.43;;;;;;;;;;6213627;23;20020;-91
2023/09/16 12:03:45;;;;;;;4.18;3.55;;;;;;;;;;6207053;23;20020;-91
2023/09/16 12:06:15;;;;;;;4.88;4.03;;;;;;;;;;6163037;23;20016;-91
2023/09/16 12:08:44;;;;;;;3.75;3.28;;;;;;;;;;6162146;23;20028;-91
2023/09/16 12:11:15;;;;;;;3.65;3.35;;;;;;;;;;6188158;23;20020;-92
2023/09/16 12:13:45;;;;;;;4.50;4.10;;;;;;;;;;6197804;23;20013;-91
2023/09/16 12:16:14;;;;;;;4.78;4.28;;;;;;;;;;6162765;23;20032;-92
2023/09/16 12:18:44;;;;;;;3.95;3.50;;;;;;;;;;6186809;23;20025;-91
2023/09/16 12:21:12;;;;;;;4.47;3.60;;;;;;;;;;6187248;23;20025;-91
2023/09/16 12:23:43;;;;;;;3.50;3.20;;;;;;;;;;6162551;23;20028;-91
2023/09/16 12:26:11;;;;;;;3.70;3.20;;;;;;;;;;6188134;23;20013;-91
2023/09/16 12:28:41;;;;;;;3.85;3.45;;;;;;;;;;6186962;23;20027;-91
2023/09/16 12:31:10;;;;;;;3.50;3.20;;;;;;;;;;6213678;23;20024;-91
2023/09/16 12:33:42;;;;;;;3.25;2.92;;;;;;;;;;6162163;23;20013;-91
2023/09/16 12:36:10;;;;;;;7.70;3.08;;;;;;;;;;6187571;23;20019;-91
2023/09/16 12:38:40;;;;;;;3.67;3.33;;;;;;;;;;6162707;23;20017;-92
2023/09/16 12:41:08;;;;;;;3.60;3.30;;;;;;;;;;6162722;23;20024;-92
2023/09/16 12:43:36;;;;;;;4.63;2.80;;;;;;;;;;6212276;23;20017;-91
2023/09/16 12:46:05;;;;;;;3.30;3.00;;;;;;;;;;6186929;23;20016;-91
2023/09/16 12:48:35;;;;;;;3.17;2.88;;;;;;;;;;6162781;23;20025;-91
2023/09/16 12:51:03;;;;;;;3.65;3.08;;;;;;;;;;6187809;23;20021;-92
2023/09/16 12:53:36;;;;;;;3.92;3.45;;;;;;;;;;6162443;23;20013;-92
2023/09/16 12:56:04;;;;;;;7.43;3.60;;;;;;;;;;6160900;23;20036;-91
2023/09/16 12:58:31;;;;;;;3.88;3.50;;;;;;;;;;6186716;23;20329;-90
2023/09/16 13:00:58;;;;;;;3.97;3.58;;;;;;;;;;6214105;23;20333;-90
2023/09/16 13:03:29;;;;;;;2.63;2.42;;;;;;;;;;6187706;23;20013;-92
2023/09/16 13:05:59;;;;;;;3.55;3.25;;;;;;;;;;6161790;23;20017;-91
2023/09/16 13:08:29;;;;;;;3.97;3.28;;;;;;;;;;6186714;23;20032;-91
2023/09/16 13:10:57;;;;;;;3.15;2.85;;;;;;;;;;6186866;23;20012;-91
2023/09/16 13:13:24;;;;;;;4.35;3.20;;;;;;;;;;6214205;23;20016;-92
2023/09/16 13:15:52;;;;;;;3.30;3.00;;;;;;;;;;6162435;23;20020;-92
2023/09/16 13:18:19;;;;;;;8.35;3.45;;;;;;;;;;6187309;23;20020;-92
2023/09/16 13:20:53;;;;;;;4.43;3.28;;;;;;;;;;6188036;23;20016;-92
2023/09/16 13:23:25;;;;;;;3.20;2.90;;;;;;;;;;6196900;23;20024;-92
2023/09/16 13:25:54;;;;;;;4.05;3.30;;;;;;;;;;6213926;23;20012;-91
2023/09/16 13:28:23;;;;;;;4.45;2.95;;;;;;;;;;6187037;23;20017;-91
2023/09/16 13:30:53;;;;;;;4.93;3.47;;;;;;;;;;6162546;23;20493;-92
2023/09/16 13:33:47;;;;;;;3.47;3.10;;;;;;;;;;6197343;23;20482;-91
2023/09/16 13:36:17;;;;;;;2.73;2.43;;;;;;;;;;6197563;23;20012;-92
2023/09/16 13:38:47;;;;;;;3.55;3.25;;;;;;;;;;6223274;23;20021;-93
2023/09/16 13:41:14;;;;;;;2.60;2.40;;;;;;;;;;6188486;23;20016;-92
2023/09/16 13:43:42;;;;;;;4.20;2.60;;;;;;;;;;6187571;23;20016;-93
2023/09/16 13:46:09;;;;;;;4.82;3.10;;;;;;;;;;6188408;23;20483;-92
2023/09/16 13:48:42;;;;;;;;;;;;;;;;;;6199955;23;20039;-93
2023/09/16 13:51:09;;;;;;;3.38;3.03;;;;;;;;;;6188764;23;20347;-92
2023/09/16 13:53:43;;;;;;;4.32;3.05;;;;;;;;;;6191329;23;20035;-93
2023/09/16 13:56:11;;;;;;;7.00;2.35;;;;;;;;;;6198435;23;20356;-93
2023/09/16 13:58:38;;;;;;;3.33;3.05;;;;;;;;;;6162860;23;20024;-91
2023/09/16 14:01:08;;;;;;;4.97;3.15;;;;;;;;;;6186698;23;20501;-91
2023/09/16 14:03:36;;;;;;;4.25;3.17;;;;;;;;;;6186613;23;20035;-93
2023/09/16 14:06:04;;;;;;;3.45;3.05;;;;;;;;;;6161495;23;20020;-91
2023/09/16 14:08:36;;;;;;;3.63;2.90;;;;;;;;;;6187187;23;20013;-91
2023/09/16 14:11:05;;;;;;;3.45;3.15;;;;;;;;;;6186138;23;20032;-91
2023/09/16 14:13:33;;;;;;;3.40;2.58;;;;;;;;;;6185911;23;20020;-92
2023/09/16 14:16:00;;;;;;;4.03;2.63;;;;;;;;;;6161617;23;20328;-91
2023/09/16 14:18:31;;;;;;;3.05;2.75;;;;;;;;;;6186910;23;20027;-92
2023/09/16 14:20:58;;;;;;;5.13;2.92;;;;;;;;;;6185505;23;20016;-92
2023/09/16 14:23:28;;;;;;;3.00;2.70;;;;;;;;;;6186353;23;20054;-92
2023/09/16 14:25:58;;;;;;;3.38;3.08;;;;;;;;;;6186090;23;20012;-91
2023/09/16 14:28:27;;;;;;;3.83;2.92;;;;;;;;;;6185640;23;20018;-92
2023/09/16 14:30:54;;;;;;;3.05;2.75;;;;;;;;;;6185499;23;20355;-92
2023/09/16 14:33:27;;;;;;;2.65;2.45;;;;;;;;;;6186732;23;20017;-91
2023/09/16 14:35:54;;;;;;;6.22;2.90;;;;;;;;;;6185972;23;20027;-91
2023/09/16 14:38:21;;;;;;;2.85;2.50;;;;;;;;;;6185705;23;20488;-91
2023/09/16 14:40:49;;;;;;;3.08;2.78;;;;;;;;;;6213476;23;20012;-91
2023/09/16 14:43:18;;;;;;;6.63;2.65;;;;;;;;;;6213820;23;20021;-91
2023/09/16 14:45:57;;;;;;;3.83;2.63;;;;;;;;;;6212792;23;20020;-92
2023/09/16 14:48:25;;;;;;;3.15;2.85;;;;;;;;;;6186162;23;20028;-90
2023/09/16 14:50:55;;;;;;;3.55;2.60;;;;;;;;;;6213361;23;20031;-92
2023/09/16 14:53:22;;;;;;;3.38;3.00;;;;;;;;;;6186177;23;20020;-92
2023/09/16 14:55:53;;;;;;;2.92;2.53;;;;;;;;;;6186294;23;20013;-91
2023/09/16 14:58:21;;;;;;;3.10;2.45;;;;;;;;;;6161632;23;20021;-91
2023/09/16 15:00:48;;;;;;;3.70;3.20;;;;;;;;;;6161285;23;20028;-91
2023/09/16 15:03:17;;;;;;;3.65;2.60;;;;;;;;;;6187200;23;20116;-92